This is the latest recevied weather packets stored in our database for station/object KF0TNT. If no packets are shown the sender has not sent any weather packets the latest 1 day(s).
| Time | Temp. | Humidity | Pressure | Rain* | Wind** | Luminosity | Snow |
|---|---|---|---|---|---|---|---|
| 1836274814 | 13.89° C | 42% | 1319.1 hPa | 0 mm | 0.45 m/s, 89° | 0 W/m² | - |
| 1836274512 | 13.89° C | 42% | 1319.3 hPa | 0 mm | 0.45 m/s, 84° | 0 W/m² | - |
| 1836274365 | 13.33° C | 43% | 1318.9 hPa | 0 mm | 0.45 m/s, 69° | 0 W/m² | - |
| 1836274210 | 13.89° C | 43% | 1319.4 hPa | 0 mm | 0.89 m/s, 85° | 0 W/m² | - |
| 1836273910 | 13.89° C | 42% | 1319.1 hPa | 0 mm | 0 m/s | 0 W/m² | - |
| 1778032092 | -1.67° C | 95% | 1013.8 hPa | 0 mm | 2.24 m/s, 318° | 1 W/m² | - |
| 1778031789 | -1.67° C | 95% | 1013.8 hPa | 0 mm | 1.79 m/s, 338° | 2 W/m² | - |
| 1778031486 | -1.67° C | 95% | 1013.4 hPa | 0 mm | 0.89 m/s, 340° | 2 W/m² | - |
| 1778031183 | -1.11° C | 95% | 1013.6 hPa | 0 mm | 2.68 m/s, 17° | 3 W/m² | - |
| 1778030880 | -1.11° C | 94% | 1013.4 hPa | 0 mm | 2.68 m/s, 34° | 4 W/m² | - |
| 1778030577 | -1.11° C | 95% | 1013.3 hPa | 0 mm | 3.13 m/s, 13° | 5 W/m² | - |
| 1778030274 | -1.11° C | 95% | 1013.5 hPa | 0 mm | 4.92 m/s, 291° | 5 W/m² | - |
| 1778029970 | -0.56° C | 95% | 1013.5 hPa | 0 mm | 1.34 m/s, 344° | 7 W/m² | - |
| 1778029669 | -0.56° C | 95% | 1013.5 hPa | 0.51 mm | 3.13 m/s, 14° | 10 W/m² | - |
| 1778029366 | -0.56° C | 95% | 1013.2 hPa | 0.51 mm | 2.68 m/s, 323° | 17 W/m² | - |
| 1778029063 | -0.56° C | 96% | 1013.2 hPa | 0 mm | 1.79 m/s, 359° | 22 W/m² | - |
| 1778028760 | 0° C | 96% | 1013 hPa | 0 mm | 3.58 m/s, 0° | 25 W/m² | - |
| 1778028455 | 0° C | 96% | 1012.9 hPa | 0 mm | 2.68 m/s, 13° | 19 W/m² | - |
| 1778028153 | 0° C | 96% | 1013.3 hPa | 0.51 mm | 4.02 m/s, 298° | 12 W/m² | - |
| 1778027849 | 0.56° C | 96% | 1013.3 hPa | 0.51 mm | 1.79 m/s, 357° | 12 W/m² | - |
| 1778027546 | 0.56° C | 96% | 1013.3 hPa | 0 mm | 0.89 m/s, 358° | 15 W/m² | - |
| 1778027241 | 0.56° C | 96% | 1013.3 hPa | 0.51 mm | 1.34 m/s, 353° | 22 W/m² | - |
| 1778026938 | 0.56° C | 96% | 1013.5 hPa | 0.51 mm | 2.24 m/s, 7° | 24 W/m² | - |
| 1778026634 | 0.56° C | 96% | 1013.5 hPa | 0.51 mm | 2.24 m/s, 325° | 24 W/m² | - |
| 1778026332 | 0.56° C | 96% | 1013.4 hPa | 1.27 mm | 1.79 m/s, 336° | 18 W/m² | - |
* Rain latest hour (hover to see other rain measurements)
** Current wind speed in m/s (hover to see current wind gust speed)